イエローナイフ の空港の天気 - METARとTAF

イエローナイフ空港 ( CYZF / YZF ) - カナダ ノースウエスト準州イエローナイフ
飛行場実況気象(Metar)
観測時間10/21 09:34 MDT (10/21 15:34 UTC)
風向・風速西北西 4m/s
視程10km以上
天気現象
全天の4割程度の雲 雲底高度 430m
全天の8割程度の雲 雲底高度 3350m
気温-7℃
湿度93%
気圧1026.4hPa
METARCYZF 211534Z 29008KT 15SM SCT014 BKN110 M07/M08 A3025 RMK SC4AC3 SLP264
過去の天気等 Google飛行場航空写真 Wunderground天気予報

過去48時間のMETAR

飛行場予報(TAF)
発表時間: 10/21 05:38 MDT (10/21 11:38 UTC)
予報対象時間: 21日6時 MDT ~ 22日6時 MDT
風向・風速北西 4m/s
視程10km以上
全天の4割程度の雲 雲底高度 610m
全天を覆う雲 雲底高度 3050m
21日6時 MDT ~ 21日9時 MDT に一時的に
視程8050m
天気現象弱い雪
21日9時 MDT から
風向・風速北西 4m/s
視程10km以上
天気現象弱い雪
全天の4割程度の雲 雲底高度 240m
全天の8割程度の雲 雲底高度 610m
21日9時 MDT ~ 21日14時 MDT に一時的に
視程3220m
天気現象弱い雪
全天の8割程度の雲 雲底高度 240m
21日14時 MDT から
風向・風速北西 6m/s
視程10km以上
全天の4割程度の雲 雲底高度 460m
全天の8割程度の雲 雲底高度 1830m
21日14時 MDT ~ 21日20時 MDT に一時的に
視程6440m
天気現象弱い雪
21日20時 MDT から
風向・風速北西 6m/s
視程10km以上
全天の4割程度の雲 雲底高度 240m
全天の8割程度の雲 雲底高度 760m
21日20時 MDT ~ 22日6時 MDT に一時的に
視程4830m
天気現象弱い雪
全天の8割程度の雲 雲底高度 240m
TAF CYZF 211138Z 2112/2212 32008KT P6SM SCT020 OVC100
TEMPO 2112/2115 5SM -SN
FM211500 32008KT 6SM -SN SCT008 BKN020
TEMPO 2115/2120 2SM -SN BKN008
FM212000 32012KT P6SM SCT015 BKN060
TEMPO 2120/2202 4SM -SN
FM220200 31012KT P6SM SCT008 BKN025
TEMPO 2202/2212 3SM -SN BKN008 RMK NXT FCST BY 211800Z